Time;durP1;ratioP1;P1;durP2;ratioP2;P2;SDS_P1;SDS_P2;PMS_P1;PMS_P2;Temp;Humidity;BMP_temperature;BMP_pressure;BME280_temperature;BME280_humidity;BME280_pressure;Samples;Min_cycle;Max_cycle;Signal;HPM_P1;HPM_P2
2024/01/11 00:00:30;;;;;;;53.72;23.10;;;;;;;-4.10;85.20;99372.34;5082306;28;20109;-67
2024/01/11 00:02:55;;;;;;;37.58;17.15;;;;;;;-4.36;85.74;99357.31;5083796;28;20024;-67
2024/01/11 00:05:21;;;;;;;37.08;17.73;;;;;;;-4.35;86.56;99359.97;5091744;28;20044;-67
2024/01/11 00:07:46;;;;;;;41.10;16.73;;;;;;;-4.14;86.79;99373.00;5088324;28;20024;-67
2024/01/11 00:10:12;;;;;;;29.08;15.75;;;;;;;-4.05;86.40;99376.88;5073730;28;20032;-67
2024/01/11 00:12:37;;;;;;;35.17;17.38;;;;;;;-4.24;85.89;99368.22;5080867;28;20032;-67
2024/01/11 00:15:03;;;;;;;41.78;18.83;;;;;;;-4.32;86.17;99369.50;5081476;28;20453;-67
2024/01/11 00:17:28;;;;;;;35.67;17.63;;;;;;;-4.43;86.85;99358.72;5080787;28;20025;-67
2024/01/11 00:19:54;;;;;;;43.28;21.05;;;;;;;-4.43;86.85;99358.72;5073462;28;20036;-67
2024/01/11 00:22:19;;;;;;;39.50;19.38;;;;;;;-4.42;87.17;99358.75;5073180;28;20460;-67
2024/01/11 00:24:44;;;;;;;46.78;22.83;;;;;;;-4.54;87.48;99360.75;5072222;28;20087;-67
2024/01/11 00:27:10;;;;;;;36.33;16.85;;;;;;;-4.61;87.37;99356.09;5080935;28;20419;-67
2024/01/11 00:29:38;;;;;;;34.58;18.38;;;;;;;-4.52;87.71;99356.53;5081115;28;20396;-67
2024/01/11 00:32:03;;;;;;;40.03;20.42;;;;;;;-4.52;87.71;99356.53;5081029;28;20031;-68
2024/01/11 00:34:29;;;;;;;36.20;17.98;;;;;;;-4.55;87.53;99356.38;5081577;28;20024;-68
2024/01/11 00:36:54;;;;;;;38.80;18.90;;;;;;;-4.55;87.68;99356.38;5075063;28;20056;-67
2024/01/11 00:39:19;;;;;;;43.42;19.38;;;;;;;-4.55;87.53;99356.38;5080163;28;20032;-68
2024/01/11 00:41:45;;;;;;;40.08;18.55;;;;;;;-4.50;87.05;99360.09;5083704;28;20019;-67
2024/01/11 00:44:10;;;;;;;44.70;19.02;;;;;;;-4.50;87.05;99360.09;5078687;28;20036;-67
2024/01/11 00:46:36;;;;;;;39.13;18.42;;;;;;;-4.50;87.05;99360.09;5088912;28;20024;-67
2024/01/11 00:49:02;;;;;;;33.72;15.45;;;;;;;-4.43;86.83;99369.84;5074121;28;20032;-67
2024/01/11 00:51:27;;;;;;;42.13;18.27;;;;;;;-4.43;86.83;99369.84;5083873;28;20441;-67
2024/01/11 00:53:52;;;;;;;36.70;18.95;;;;;;;-4.43;86.83;99369.84;5074498;28;20051;-67
2024/01/11 00:56:19;;;;;;;45.88;18.48;;;;;;;-4.43;86.83;99369.84;5081468;28;20125;-68
2024/01/11 00:58:45;;;;;;;42.05;19.13;;;;;;;-4.43;86.83;99369.84;5087387;28;20433;-68
2024/01/11 01:01:11;;;;;;;39.60;19.25;;;;;;;-137.91;86.83;77761.78;5080526;28;20388;-68
2024/01/11 01:03:36;;;;;;;44.38;19.20;;;;;;;-4.43;86.83;99369.84;5074777;28;20032;-68
2024/01/11 01:06:02;;;;;;;38.50;18.08;;;;;;;-4.86;88.62;99358.22;5077917;28;20017;-68
2024/01/11 01:08:28;;;;;;;30.35;15.27;;;;;;;-4.86;88.62;99358.22;5071865;28;20032;-68
2024/01/11 01:10:54;;;;;;;38.55;19.27;;;;;;;-4.86;88.62;99358.22;5083306;28;20028;-68
2024/01/11 01:13:19;;;;;;;36.05;17.20;;;;;;;-4.86;88.62;99358.22;5080968;28;20067;-68
2024/01/11 01:15:44;;;;;;;32.00;16.38;;;;;;;-4.86;88.62;99358.22;5079869;28;20048;-68
2024/01/11 01:18:10;;;;;;;36.85;16.65;;;;;;;-4.86;88.62;99358.22;5072438;28;20056;-68
2024/01/11 01:20:35;;;;;;;29.73;15.88;;;;;;;-4.86;88.62;99358.22;5072376;28;20027;-68
2024/01/11 01:23:01;;;;;;;33.97;15.38;;;;;;;-4.86;88.62;99358.22;5077378;28;20116;-68
2024/01/11 01:25:27;;;;;;;31.73;15.68;;;;;;;-4.86;88.62;99358.22;5083575;28;20048;-68
2024/01/11 01:27:52;;;;;;;26.90;14.48;;;;;;;-4.86;88.62;99358.22;5084448;28;20082;-68
2024/01/11 01:30:17;;;;;;;32.35;14.93;;;;;;;-4.86;88.62;99358.22;5072999;28;20111;-68
2024/01/11 01:32:43;;;;;;;40.03;15.88;;;;;;;-4.86;88.62;99358.22;5087071;28;20028;-68
2024/01/11 01:35:08;;;;;;;31.60;15.95;;;;;;;-4.86;88.62;99358.22;5079890;28;20078;-68
2024/01/11 01:37:34;;;;;;;30.92;14.30;;;;;;;-4.86;88.62;99358.22;5090209;28;20032;-68
2024/01/11 01:39:59;;;;;;;36.55;16.83;;;;;;;-4.86;88.62;99358.22;5084090;28;20108;-68
2024/01/11 01:42:24;;;;;;;34.33;15.40;;;;;;;-4.86;88.62;99358.22;5076473;28;20024;-68
2024/01/11 01:44:50;;;;;;;34.35;14.10;;;;;;;-4.86;88.62;99358.22;5083343;28;20063;-68
2024/01/11 01:47:16;;;;;;;24.63;13.38;;;;;;;-4.86;88.62;99358.22;5084229;28;20058;-68
2024/01/11 01:49:43;;;;;;;39.95;16.30;;;;;;;-4.86;88.62;99358.22;5083844;28;20082;-68
2024/01/11 01:52:09;;;;;;;22.13;13.50;;;;;;;-4.86;88.62;99358.22;5076928;28;20067;-68
2024/01/11 01:54:35;;;;;;;27.92;14.43;;;;;;;-4.86;88.62;99358.22;5095187;28;20055;-68
2024/01/11 01:57:02;;;;;;;23.00;12.70;;;;;;;-4.88;88.01;99421.41;5081909;28;20464;-68
2024/01/11 01:59:29;;;;;;;39.10;15.70;;;;;;;-4.88;88.01;99421.41;5076900;28;20029;-68
2024/01/11 02:01:54;;;;;;;24.00;14.10;;;;;;;-4.88;88.01;99421.41;5090409;28;20059;-68
2024/01/11 02:04:20;;;;;;;29.23;15.60;;;;;;;-4.88;88.01;99421.41;5096817;28;20055;-68
2024/01/11 02:06:47;;;;;;;22.85;13.20;;;;;;;-4.88;88.01;99421.41;5078798;28;20020;-67
2024/01/11 02:09:13;;;;;;;24.25;13.05;;;;;;;-4.88;88.01;99421.41;5075849;28;20094;-67
2024/01/11 02:11:40;;;;;;;24.10;12.45;;;;;;;-139.19;88.01;77865.25;5077917;28;20024;-67
2024/01/11 02:14:07;;;;;;;30.98;13.20;;;;;;;-4.88;88.01;99421.41;5080668;28;20040;-67
2024/01/11 02:16:32;;;;;;;41.35;18.27;;;;;;;-4.88;88.01;99421.41;5083704;28;20087;-67
2024/01/11 02:18:57;;;;;;;29.95;14.20;;;;;;;-139.19;88.01;99421.41;5083189;28;20107;-67
2024/01/11 02:21:24;;;;;;;43.50;15.15;;;;;;;-139.19;88.01;99421.41;5075429;28;20394;-68
2024/01/11 02:24:05;;;;;;;27.75;13.20;;;;;;;-4.88;88.01;99421.41;5075698;28;20040;-67
2024/01/11 02:26:31;;;;;;;25.88;12.65;;;;;;;-93.07;88.01;99421.41;5075304;28;20027;-67
2024/01/11 02:28:56;;;;;;;29.58;14.25;;;;;;;-4.88;88.01;99421.41;5082762;28;20028;-67
2024/01/11 02:31:23;;;;;;;25.17;11.98;;;;;;;-4.88;88.01;99421.41;5083686;28;20428;-67
2024/01/11 02:33:49;;;;;;;28.25;14.63;;;;;;;-4.88;88.01;99421.41;5075495;28;20099;-67
2024/01/11 02:36:15;;;;;;;25.25;14.75;;;;;;;-4.88;88.01;99421.41;5084802;28;20123;-67
2024/01/11 02:38:42;;;;;;;23.33;13.43;;;;;;;-139.19;100.00;56970.53;5085913;28;20380;-67
2024/01/11 02:41:07;;;;;;;26.58;13.02;;;;;;;-139.19;100.00;56970.53;5085613;28;20021;-68
2024/01/11 02:43:35;;;;;;;27.30;14.00;;;;;;;-139.19;100.00;56970.53;5082383;28;20047;-68
2024/01/11 02:46:01;;;;;;;29.33;12.77;;;;;;;-139.19;100.00;56970.53;5080453;28;20479;-68
2024/01/11 02:48:30;;;;;;;33.58;14.73;;;;;;;-139.19;100.00;56970.53;5078602;28;20020;-67
2024/01/11 02:50:57;;;;;;;28.48;12.85;;;;;;;-139.19;100.00;56970.53;5084533;28;20530;-67
2024/01/11 02:53:23;;;;;;;22.67;13.90;;;;;;;-139.19;100.00;56970.53;5080340;28;20024;-68
2024/01/11 02:55:49;;;;;;;24.45;12.38;;;;;;;-139.19;100.00;56970.53;5083037;28;20119;-68
2024/01/11 02:58:14;;;;;;;28.02;12.55;;;;;;;-139.19;100.00;56970.53;5084581;28;20709;-67
2024/01/11 03:00:39;;;;;;;22.42;10.63;;;;;;;-139.19;100.00;56970.53;5085560;28;20047;-67
2024/01/11 03:03:05;;;;;;;21.13;12.32;;;;;;;-139.19;100.00;56970.53;5077953;28;20472;-68
2024/01/11 03:05:30;;;;;;;24.90;12.70;;;;;;;-139.19;100.00;56970.53;5084630;28;20487;-68
2024/01/11 03:07:56;;;;;;;24.17;12.40;;;;;;;-139.19;100.00;56970.53;5085422;28;20047;-68
2024/01/11 03:10:21;;;;;;;27.58;13.45;;;;;;;-139.19;100.00;56970.53;5078094;28;20020;-68
2024/01/11 03:12:49;;;;;;;24.10;10.95;;;;;;;-139.19;100.00;56970.53;5075204;28;20031;-68
2024/01/11 03:15:15;;;;;;;23.45;11.80;;;;;;;-139.19;100.00;56970.53;5079497;28;20092;-67
2024/01/11 03:17:40;;;;;;;20.23;10.20;;;;;;;-139.19;100.00;56970.53;5076846;28;20029;-68
2024/01/11 03:20:06;;;;;;;24.48;11.98;;;;;;;-139.19;100.00;56970.53;5077818;28;20383;-68
2024/01/11 03:22:31;;;;;;;22.73;10.15;;;;;;;-139.19;100.00;56970.53;5084590;28;20032;-67
2024/01/11 03:24:57;;;;;;;29.10;10.77;;;;;;;-139.19;100.00;56970.53;5083699;28;20525;-68
2024/01/11 03:27:22;;;;;;;23.92;11.20;;;;;;;-139.19;100.00;56970.53;5082882;28;20060;-68
2024/01/11 03:29:49;;;;;;;21.77;11.23;;;;;;;-139.19;100.00;56970.53;5082005;28;20021;-67
2024/01/11 03:32:14;;;;;;;22.88;10.73;;;;;;;-139.19;100.00;56970.53;5081249;28;20032;-67
2024/01/11 03:34:40;;;;;;;22.38;10.85;;;;;;;-139.19;100.00;56970.53;5083918;28;20093;-67
2024/01/11 03:37:05;;;;;;;24.15;10.75;;;;;;;-139.19;100.00;56970.53;5085160;28;20076;-68
2024/01/11 03:39:30;;;;;;;22.00;9.85;;;;;;;-139.19;100.00;56970.53;5083092;28;20100;-68
2024/01/11 03:41:56;;;;;;;25.45;12.27;;;;;;;-139.19;100.00;56970.53;5074959;28;20427;-67
2024/01/11 03:44:22;;;;;;;25.17;12.65;;;;;;;-139.19;100.00;56970.53;5080458;28;20024;-68
2024/01/11 03:46:48;;;;;;;22.00;10.52;;;;;;;-139.19;100.00;56970.53;5081556;28;20024;-68
2024/01/11 03:49:14;;;;;;;18.25;9.57;;;;;;;-139.19;100.00;56970.53;5083513;28;20032;-68
2024/01/11 03:51:39;;;;;;;29.38;11.32;;;;;;;-139.19;100.00;56970.53;5084753;28;20035;-68
2024/01/11 03:54:05;;;;;;;19.20;10.85;;;;;;;-139.19;100.00;56970.53;5075793;28;20102;-68
2024/01/11 03:56:30;;;;;;;23.95;10.90;;;;;;;-139.19;100.00;56970.53;5085459;28;20070;-67
2024/01/11 03:58:55;;;;;;;20.02;10.52;;;;;;;-139.19;100.00;56970.53;5094634;28;20028;-67
2024/01/11 04:01:21;;;;;;;20.40;11.20;;;;;;;-139.19;100.00;56970.53;5093757;28;20020;-68
2024/01/11 04:03:46;;;;;;;26.23;13.15;;;;;;;-139.19;100.00;56970.53;5094577;28;20479;-67
2024/01/11 04:06:24;;;;;;;25.98;12.35;;;;;;;-139.19;100.00;56970.53;5093649;28;20028;-67
2024/01/11 04:08:50;;;;;;;20.42;11.70;;;;;;;-139.19;100.00;56970.53;5094445;28;20031;-67
2024/01/11 04:11:17;;;;;;;20.73;10.43;;;;;;;-139.19;100.00;56970.53;5094661;28;20032;-67
2024/01/11 04:13:42;;;;;;;20.77;11.88;;;;;;;-139.19;100.00;56970.53;5094538;28;20024;-67
2024/01/11 04:16:08;;;;;;;21.10;9.98;;;;;;;-139.19;100.00;56970.53;5083532;28;20135;-67
2024/01/11 04:18:33;;;;;;;22.65;11.10;;;;;;;-139.19;100.00;56970.53;5080764;28;20056;-67
2024/01/11 04:20:59;;;;;;;18.40;10.38;;;;;;;-139.19;100.00;56970.53;5079534;28;20025;-67
2024/01/11 04:23:24;;;;;;;20.90;10.88;;;;;;;-139.19;100.00;56970.53;5073080;28;20128;-67
2024/01/11 04:25:51;;;;;;;21.95;11.43;;;;;;;-139.19;100.00;56970.53;5072689;28;20472;-67
2024/01/11 04:28:17;;;;;;;24.73;10.95;;;;;;;-139.19;100.00;56970.53;5073332;28;20062;-67
2024/01/11 04:30:42;;;;;;;19.58;11.23;;;;;;;-139.19;100.00;56970.53;5080498;28;20095;-67
2024/01/11 04:33:08;;;;;;;21.00;10.50;;;;;;;-139.19;100.00;56970.53;5081027;28;20024;-67
2024/01/11 04:35:33;;;;;;;22.05;10.07;;;;;;;-139.19;100.00;56970.53;5080058;28;20032;-68
2024/01/11 04:37:58;;;;;;;18.92;9.00;;;;;;;-139.19;100.00;56970.53;5072610;28;20035;-67
2024/01/11 04:40:24;;;;;;;17.73;10.10;;;;;;;-139.19;100.00;56970.53;5080621;28;20127;-67
2024/01/11 04:42:49;;;;;;;18.95;10.25;;;;;;;-139.19;100.00;56970.53;5073292;28;20020;-67
2024/01/11 04:45:15;;;;;;;24.40;10.18;;;;;;;-139.19;100.00;56970.53;5088498;28;20110;-68
2024/01/11 04:47:40;;;;;;;24.08;10.00;;;;;;;-139.19;100.00;56970.53;5084469;28;20024;-68
2024/01/11 04:50:06;;;;;;;18.58;10.05;;;;;;;-139.19;100.00;56970.53;5091167;28;20026;-68
2024/01/11 04:52:32;;;;;;;21.42;10.05;;;;;;;-139.19;100.00;56970.53;5081418;28;20023;-68
2024/01/11 04:54:57;;;;;;;21.27;10.32;;;;;;;-139.19;100.00;56970.53;5073124;28;20468;-67
2024/01/11 04:57:23;;;;;;;20.35;9.63;;;;;;;-139.19;100.00;56970.53;5073011;28;20032;-67
2024/01/11 04:59:48;;;;;;;21.38;10.07;;;;;;;-139.19;100.00;56970.53;5076940;28;20086;-68
2024/01/11 05:02:13;;;;;;;20.80;10.57;;;;;;;-139.19;100.00;56970.53;5079722;28;20036;-67
2024/01/11 05:04:39;;;;;;;14.82;8.23;;;;;;;-139.19;100.00;56970.53;5081919;28;20415;-67
2024/01/11 05:07:04;;;;;;;26.90;11.38;;;;;;;-139.19;100.00;56970.53;5087115;28;20469;-68
2024/01/11 05:09:29;;;;;;;20.65;9.75;;;;;;;-139.19;100.00;56970.53;5072746;28;20051;-68
2024/01/11 05:11:55;;;;;;;26.42;10.63;;;;;;;-139.19;100.00;56970.53;5072457;28;20058;-67
2024/01/11 05:14:20;;;;;;;25.00;11.93;;;;;;;-139.19;100.00;56970.53;5088385;28;20081;-67
2024/01/11 05:16:45;;;;;;;20.33;10.52;;;;;;;-139.19;100.00;56970.53;5079264;28;20040;-67
2024/01/11 05:19:11;;;;;;;27.10;10.52;;;;;;;-139.19;100.00;56970.53;5080567;28;20036;-67
2024/01/11 05:21:36;;;;;;;16.20;9.48;;;;;;;-139.19;100.00;56970.53;5080843;28;20074;-67
2024/01/11 05:24:02;;;;;;;18.63;9.57;;;;;;;-139.19;100.00;56970.53;5080371;28;20487;-67
2024/01/11 05:26:27;;;;;;;16.50;9.40;;;;;;;-139.19;100.00;56970.53;5079013;28;20429;-67
2024/01/11 05:28:52;;;;;;;22.35;9.82;;;;;;;-139.19;100.00;56970.53;5088840;28;20434;-67
2024/01/11 05:31:18;;;;;;;22.83;11.88;;;;;;;-139.19;100.00;56970.53;5084226;28;20136;-68
2024/01/11 05:33:43;;;;;;;20.77;10.20;;;;;;;-139.19;100.00;56970.53;5084481;28;20028;-67
2024/01/11 05:36:09;;;;;;;26.65;12.40;;;;;;;-139.19;100.00;56970.53;5080864;28;20033;-67
2024/01/11 05:38:35;;;;;;;21.27;11.80;;;;;;;-139.19;100.00;56970.53;5082694;28;20020;-67
2024/01/11 05:41:00;;;;;;;22.40;10.63;;;;;;;-139.19;100.00;56970.53;5083071;28;20036;-68
2024/01/11 05:43:26;;;;;;;17.48;9.73;;;;;;;-139.19;100.00;56970.53;5075778;28;20060;-67
2024/01/11 05:45:51;;;;;;;21.75;9.63;;;;;;;-139.19;100.00;56970.53;5072085;28;20108;-68
2024/01/11 05:48:17;;;;;;;20.02;10.98;;;;;;;-139.19;100.00;56970.53;5070734;28;20427;-68
2024/01/11 05:50:43;;;;;;;22.02;9.93;;;;;;;-139.19;100.00;56970.53;5070635;28;20025;-68
2024/01/11 05:53:09;;;;;;;24.55;11.13;;;;;;;-139.19;100.00;56970.53;5071165;28;20476;-68
2024/01/11 05:55:34;;;;;;;28.70;12.60;;;;;;;-139.19;100.00;56970.53;5071080;28;20028;-67
2024/01/11 05:58:01;;;;;;;18.13;10.32;;;;;;;-139.19;100.00;56970.53;5071347;28;20028;-67
2024/01/11 06:00:26;;;;;;;19.50;9.40;;;;;;;-139.19;100.00;56970.53;5071210;28;20029;-67
2024/01/11 06:02:52;;;;;;;16.98;9.38;;;;;;;-139.19;100.00;56970.53;5072418;28;20035;-67
2024/01/11 06:05:17;;;;;;;29.90;12.40;;;;;;;-139.19;100.00;56970.53;5072673;28;20024;-68
2024/01/11 06:07:42;;;;;;;20.58;10.25;;;;;;;-139.19;100.00;56970.53;5072958;28;20013;-67
2024/01/11 06:10:08;;;;;;;18.02;9.07;;;;;;;-139.19;100.00;56970.53;5072632;28;20142;-67
2024/01/11 06:12:37;;;;;;;21.02;11.00;;;;;;;-139.19;100.00;56970.53;5072658;28;20074;-68
2024/01/11 06:15:03;;;;;;;28.05;11.93;;;;;;;-139.19;100.00;56970.53;5072337;28;20404;-68
2024/01/11 06:17:28;;;;;;;26.48;11.77;;;;;;;-139.19;100.00;56970.53;5072533;28;20032;-67
2024/01/11 06:19:54;;;;;;;19.50;9.70;;;;;;;-139.19;100.00;56970.53;5072588;28;20093;-67
2024/01/11 06:22:20;;;;;;;34.60;12.38;;;;;;;-139.19;100.00;56970.53;5072808;28;20029;-67
2024/01/11 06:24:45;;;;;;;27.42;11.00;;;;;;;-139.19;100.00;56970.53;5075494;28;20039;-68
2024/01/11 06:27:10;;;;;;;21.02;10.13;;;;;;;-139.19;100.00;56970.53;5076223;28;20044;-68
2024/01/11 06:29:36;;;;;;;26.25;11.75;;;;;;;-139.19;100.00;56970.53;5076075;28;20032;-68
2024/01/11 06:32:02;;;;;;;23.40;11.80;;;;;;;-139.19;100.00;56970.53;5075985;28;20074;-68
2024/01/11 06:34:28;;;;;;;21.25;11.90;;;;;;;-139.19;100.00;56970.53;5076273;28;20468;-68
2024/01/11 06:36:54;;;;;;;35.13;12.18;;;;;;;-139.19;100.00;56970.53;5076166;28;20107;-68
2024/01/11 06:39:19;;;;;;;26.40;13.07;;;;;;;-139.19;100.00;56970.53;5075934;28;20075;-68
2024/01/11 06:41:45;;;;;;;27.40;12.93;;;;;;;-139.19;100.00;56970.53;5075872;28;20036;-68
2024/01/11 06:44:10;;;;;;;22.27;10.70;;;;;;;-139.19;100.00;56970.53;5075880;28;20024;-68
2024/01/11 06:46:36;;;;;;;24.33;11.60;;;;;;;-139.19;100.00;56970.53;5076045;28;20488;-67
2024/01/11 06:49:02;;;;;;;27.67;11.60;;;;;;;-139.19;100.00;56970.53;5075714;28;20025;-68
2024/01/11 06:51:27;;;;;;;18.63;11.98;;;;;;;-139.19;100.00;56970.53;5075961;28;20027;-67
2024/01/11 06:53:53;;;;;;;21.77;10.15;;;;;;;-139.19;100.00;56970.53;5075903;28;20464;-68
2024/01/11 06:56:20;;;;;;;16.45;8.93;;;;;;;-139.19;100.00;56970.53;5075706;28;20483;-67
2024/01/11 06:58:46;;;;;;;17.88;9.82;;;;;;;-139.19;100.00;56970.53;5074230;28;20024;-68
2024/01/11 07:01:12;;;;;;;17.05;8.93;;;;;;;-139.19;100.00;56970.53;5075566;28;20031;-68
2024/01/11 07:03:38;;;;;;;20.05;10.98;;;;;;;-139.19;100.00;56970.53;5075542;28;20025;-68
2024/01/11 07:06:04;;;;;;;21.05;10.02;;;;;;;-139.19;100.00;56970.53;5075691;28;20037;-68
2024/01/11 07:08:30;;;;;;;20.23;9.57;;;;;;;-139.19;100.00;56970.53;5075405;28;20086;-68
2024/01/11 07:10:55;;;;;;;21.92;11.32;;;;;;;-139.19;100.00;56970.53;5075620;28;20101;-68
2024/01/11 07:13:21;;;;;;;25.38;9.35;;;;;;;-139.19;100.00;56970.53;5075227;28;20532;-68
2024/01/11 07:15:48;;;;;;;17.08;9.52;;;;;;;-139.19;100.00;56970.53;5075055;28;20055;-68
2024/01/11 07:18:13;;;;;;;28.70;11.38;;;;;;;-139.19;100.00;56970.53;5075499;28;20391;-68
2024/01/11 07:20:39;;;;;;;21.75;11.57;;;;;;;-139.19;100.00;56970.53;5075306;28;20032;-68
2024/01/11 07:23:04;;;;;;;22.20;10.32;;;;;;;-139.19;100.00;56970.53;5075125;28;20039;-68
2024/01/11 07:25:30;;;;;;;20.17;9.88;;;;;;;-139.19;100.00;56970.53;5075051;28;20028;-68
2024/01/11 07:27:55;;;;;;;24.67;10.90;;;;;;;-139.19;100.00;56970.53;5075297;28;20028;-68
2024/01/11 07:30:21;;;;;;;21.05;10.90;;;;;;;-139.19;100.00;56970.53;5074987;28;20079;-68
2024/01/11 07:32:46;;;;;;;23.33;13.93;;;;;;;-139.19;100.00;56970.53;5074997;28;20035;-68
2024/01/11 07:35:12;;;;;;;20.15;9.65;;;;;;;-139.19;100.00;56970.53;5074719;28;20127;-68
2024/01/11 07:37:38;;;;;;;16.88;11.05;;;;;;;-139.19;100.00;56970.53;5075055;28;20032;-68
2024/01/11 07:40:09;;;;;;;15.68;9.15;;;;;;;-139.19;100.00;56970.53;5075037;28;20024;-68
2024/01/11 07:42:35;;;;;;;22.58;11.13;;;;;;;-139.19;100.00;56970.53;5075002;28;20476;-67
2024/01/11 07:45:01;;;;;;;17.40;9.40;;;;;;;-139.19;100.00;56970.53;5074714;28;20108;-68
2024/01/11 07:47:26;;;;;;;20.38;11.23;;;;;;;-139.19;100.00;56970.53;5074621;28;20087;-68
2024/01/11 07:49:51;;;;;;;25.10;11.68;;;;;;;-139.19;100.00;56970.53;5074841;28;20468;-68
2024/01/11 07:52:17;;;;;;;42.20;17.83;;;;;;;-139.19;100.00;56970.53;5074574;28;20024;-68
2024/01/11 07:54:42;;;;;;;31.88;16.35;;;;;;;-139.19;100.00;56970.53;5074547;28;20020;-68
2024/01/11 07:57:07;;;;;;;28.25;13.05;;;;;;;-139.19;100.00;56970.53;5074318;28;20024;-68
2024/01/11 07:59:35;;;;;;;29.63;12.90;;;;;;;-139.19;100.00;56970.53;5074382;28;20024;-67
2024/01/11 08:02:01;;;;;;;19.13;10.05;;;;;;;-139.19;100.00;56970.53;5074266;28;20028;-67
2024/01/11 08:04:26;;;;;;;26.83;14.60;;;;;;;-139.19;100.00;56970.53;5074274;28;20036;-67
2024/01/11 08:06:52;;;;;;;34.90;14.85;;;;;;;-139.19;100.00;56970.53;5074404;28;20381;-68
2024/01/11 08:09:18;;;;;;;30.45;13.80;;;;;;;-139.19;100.00;56970.53;5074434;28;20016;-67
2024/01/11 08:11:43;;;;;;;28.80;13.43;;;;;;;-139.19;100.00;56970.53;5074331;28;20016;-68
2024/01/11 08:14:09;;;;;;;34.47;13.98;;;;;;;-139.19;100.00;56970.53;5074232;28;20464;-68
2024/01/11 08:16:34;;;;;;;26.67;13.57;;;;;;;-139.19;100.00;56970.53;5073845;28;20044;-68
2024/01/11 08:19:00;;;;;;;28.80;13.40;;;;;;;-139.19;100.00;56970.53;5074269;28;20024;-67
2024/01/11 08:21:26;;;;;;;26.13;13.57;;;;;;;-139.19;100.00;56970.53;5074229;28;20051;-67
2024/01/11 08:23:51;;;;;;;35.40;14.80;;;;;;;-139.19;100.00;56970.53;5074173;28;20021;-68
2024/01/11 08:26:18;;;;;;;35.10;14.75;;;;;;;-139.19;100.00;56970.53;5073831;28;20474;-67
2024/01/11 08:28:44;;;;;;;29.05;13.88;;;;;;;-139.19;100.00;56970.53;5074075;28;20031;-68
2024/01/11 08:31:09;;;;;;;23.10;11.60;;;;;;;-139.19;100.00;56970.53;5073827;28;20024;-67
2024/01/11 08:33:36;;;;;;;18.15;9.32;;;;;;;-139.19;100.00;56970.53;5072496;28;20384;-68
2024/01/11 08:36:03;;;;;;;25.77;11.30;;;;;;;-139.19;100.00;56970.53;5073898;28;20384;-68
2024/01/11 08:38:29;;;;;;;20.75;11.45;;;;;;;-139.19;100.00;56970.53;5073588;28;20032;-68
2024/01/11 08:40:55;;;;;;;21.30;11.02;;;;;;;-139.19;100.00;56970.53;5073535;28;20061;-67
2024/01/11 08:43:20;;;;;;;23.20;11.60;;;;;;;-139.19;100.00;56970.53;5073588;28;20020;-68
2024/01/11 08:45:46;;;;;;;29.05;14.07;;;;;;;-139.19;100.00;56970.53;5073321;28;20056;-67
2024/01/11 08:48:12;;;;;;;24.65;12.40;;;;;;;-139.19;100.00;56970.53;5073438;28;20032;-67
2024/01/11 08:50:38;;;;;;;23.67;12.20;;;;;;;-139.19;100.00;56970.53;5073610;28;20032;-68
2024/01/11 08:53:03;;;;;;;28.45;13.95;;;;;;;-139.19;100.00;56970.53;5073700;28;20077;-68
2024/01/11 08:55:28;;;;;;;19.75;11.85;;;;;;;-139.19;100.00;56970.53;5073447;28;20025;-68
2024/01/11 08:57:54;;;;;;;27.88;13.10;;;;;;;-139.19;100.00;56970.53;5073328;28;20050;-68
2024/01/11 09:00:19;;;;;;;25.80;13.52;;;;;;;-139.19;100.00;56970.53;5073411;28;20020;-68
2024/01/11 09:02:45;;;;;;;25.05;12.45;;;;;;;-139.19;100.00;56970.53;5073625;28;20025;-67
2024/01/11 09:05:11;;;;;;;25.65;13.07;;;;;;;-139.19;100.00;56970.53;5073584;28;20024;-68
2024/01/11 09:07:37;;;;;;;31.92;14.23;;;;;;;-139.19;100.00;56970.53;5073406;28;20016;-68
2024/01/11 09:10:03;;;;;;;32.78;15.88;;;;;;;-139.19;100.00;56970.53;5073566;28;20074;-68
2024/01/11 09:12:28;;;;;;;28.83;13.18;;;;;;;-139.19;100.00;56970.53;5073515;28;20051;-68
2024/01/11 09:14:54;;;;;;;31.88;14.85;;;;;;;-139.19;100.00;56970.53;5073173;28;20353;-68
2024/01/11 09:17:20;;;;;;;27.45;14.13;;;;;;;-139.19;100.00;56970.53;5072014;28;20056;-67
2024/01/11 09:19:45;;;;;;;25.90;12.68;;;;;;;-139.19;100.00;56970.53;5073228;28;20025;-67
2024/01/11 09:22:10;;;;;;;33.20;15.13;;;;;;;-139.19;100.00;56970.53;5073279;28;20059;-67
2024/01/11 09:24:36;;;;;;;30.75;15.98;;;;;;;-139.19;100.00;56970.53;5073139;28;20036;-67
2024/01/11 09:27:04;;;;;;;27.85;14.50;;;;;;;-139.19;100.00;56970.53;5073123;28;20016;-67
2024/01/11 09:29:29;;;;;;;32.10;15.00;;;;;;;-139.19;100.00;56970.53;5073028;28;20031;-67
2024/01/11 09:31:55;;;;;;;29.90;14.85;;;;;;;-139.19;100.00;56970.53;5073047;28;20017;-67
2024/01/11 09:34:20;;;;;;;29.52;14.27;;;;;;;-139.19;100.00;56970.53;5073050;28;20055;-67
2024/01/11 09:36:45;;;;;;;33.88;14.75;;;;;;;-139.19;100.00;56970.53;5073001;28;20057;-67
2024/01/11 09:39:13;;;;;;;23.25;13.32;;;;;;;-139.19;100.00;56970.53;5073093;28;20384;-67
2024/01/11 09:41:43;;;;;;;27.35;15.23;;;;;;;-139.19;100.00;56970.53;5073271;28;20020;-67
2024/01/11 09:44:08;;;;;;;26.92;13.93;;;;;;;-139.19;100.00;56970.53;5073336;28;20048;-67
2024/01/11 09:46:34;;;;;;;32.80;14.15;;;;;;;-139.19;100.00;56970.53;5073120;28;20048;-67
2024/01/11 09:49:01;;;;;;;29.50;14.93;;;;;;;-139.19;100.00;56970.53;5072887;28;20024;-67
2024/01/11 09:51:29;;;;;;;28.08;14.43;;;;;;;-139.19;100.00;56970.53;5072873;28;20028;-67
2024/01/11 09:53:55;;;;;;;29.10;14.50;;;;;;;-139.19;100.00;56970.53;5072892;28;20025;-67
2024/01/11 09:56:21;;;;;;;31.30;15.05;;;;;;;-139.19;100.00;56970.53;5072653;28;20028;-68
2024/01/11 09:58:50;;;;;;;32.53;15.07;;;;;;;-139.19;100.00;56970.53;5072948;28;20020;-67
2024/01/11 10:01:16;;;;;;;31.88;13.65;;;;;;;-139.19;100.00;56970.53;5076903;28;20028;-67
2024/01/11 10:03:43;;;;;;;33.05;14.32;;;;;;;-139.19;100.00;56970.53;5076700;28;20056;-67
2024/01/11 10:06:09;;;;;;;28.67;13.68;;;;;;;-139.19;100.00;56970.53;5076511;28;20048;-68
2024/01/11 10:08:36;;;;;;;26.38;12.88;;;;;;;-139.19;100.00;56970.53;5076495;28;20017;-68
2024/01/11 10:11:02;;;;;;;30.85;14.45;;;;;;;-139.19;100.00;56970.53;5076473;28;20020;-67
2024/01/11 10:13:29;;;;;;;33.47;14.45;;;;;;;-139.19;100.00;56970.53;5076247;28;20024;-67
2024/01/11 10:16:08;;;;;;;36.85;12.95;;;;;;;-139.19;100.00;56970.53;5074974;28;20143;-67
2024/01/11 10:18:33;;;;;;;28.35;14.50;;;;;;;-139.19;100.00;56970.53;5076289;28;20064;-67
2024/01/11 10:20:59;;;;;;;32.20;13.85;;;;;;;-139.19;100.00;56970.53;5076277;28;20051;-67
2024/01/11 10:23:24;;;;;;;28.48;13.00;;;;;;;-139.19;100.00;56970.53;5076200;28;20036;-67
2024/01/11 10:25:49;;;;;;;26.88;13.02;;;;;;;-139.19;100.00;56970.53;5076273;28;20029;-67
2024/01/11 10:28:15;;;;;;;30.05;12.88;;;;;;;-139.19;100.00;56970.53;5075043;28;20031;-68
2024/01/11 10:30:48;;;;;;;31.33;13.23;;;;;;;-139.19;100.00;56970.53;5076333;28;20530;-68
2024/01/11 10:33:13;;;;;;;26.73;13.43;;;;;;;-139.19;100.00;56970.53;5076304;28;20531;-67
2024/01/11 10:35:38;;;;;;;28.58;13.57;;;;;;;-139.19;100.00;56970.53;5075958;28;20052;-67
2024/01/11 10:38:09;;;;;;;25.80;12.32;;;;;;;-139.19;100.00;56970.53;5075961;28;20024;-67
2024/01/11 10:40:35;;;;;;;20.67;12.55;;;;;;;-139.19;100.00;56970.53;5075927;28;20060;-67
2024/01/11 10:43:04;;;;;;;27.60;12.63;;;;;;;-139.19;100.00;56970.53;5075881;28;20052;-67
2024/01/11 10:45:38;;;;;;;22.70;12.13;;;;;;;-139.19;100.00;56970.53;5075794;28;20032;-67
2024/01/11 10:48:07;;;;;;;29.00;12.13;;;;;;;-139.19;100.00;56970.53;5076022;28;20024;-67
2024/01/11 10:50:43;;;;;;;23.52;12.35;;;;;;;-139.19;100.00;56970.53;5075745;28;20082;-67
2024/01/11 10:53:08;;;;;;;29.98;14.93;;;;;;;-139.19;100.00;56970.53;5075966;28;20029;-67